sensor_id;sensor_type;location;lat;lon;timestamp;pressure;altitude;pressure_sealevel;temperature;humidity
6150;BME280;3106;42.670;23.318;2023-07-30T00:01:38;94305.66;;;21.76;68.29
6150;BME280;3106;42.670;23.318;2023-07-30T00:04:04;94310.63;;;21.81;68.09
6150;BME280;3106;42.670;23.318;2023-07-30T00:06:31;94304.34;;;21.84;68.19
6150;BME280;3106;42.670;23.318;2023-07-30T00:08:59;94314.03;;;21.85;67.61
6150;BME280;3106;42.670;23.318;2023-07-30T00:11:26;94307.06;;;21.84;68.05
6150;BME280;3106;42.670;23.318;2023-07-30T00:13:53;94305.53;;;21.83;68.26
6150;BME280;3106;42.670;23.318;2023-07-30T00:16:20;94290.84;;;21.77;68.27
6150;BME280;3106;42.670;23.318;2023-07-30T00:18:47;94303.91;;;21.86;68.16
6150;BME280;3106;42.670;23.318;2023-07-30T00:21:14;94285.06;;;21.75;67.72
6150;BME280;3106;42.670;23.318;2023-07-30T00:23:41;94305.56;;;21.80;67.82
6150;BME280;3106;42.670;23.318;2023-07-30T00:26:09;94304.03;;;21.79;68.03
6150;BME280;3106;42.670;23.318;2023-07-30T00:28:36;94301.31;;;21.79;68.42
6150;BME280;3106;42.670;23.318;2023-07-30T00:31:03;94306.34;;;21.80;68.72
6150;BME280;3106;42.670;23.318;2023-07-30T00:33:30;94293.56;;;21.77;68.31
6150;BME280;3106;42.670;23.318;2023-07-30T00:35:56;94303.84;;;21.89;68.86
6150;BME280;3106;42.670;23.318;2023-07-30T00:38:23;94287.53;;;21.89;68.36
6150;BME280;3106;42.670;23.318;2023-07-30T00:40:50;94290.25;;;21.89;69.30
6150;BME280;3106;42.670;23.318;2023-07-30T00:43:18;94285.94;;;21.92;69.39
6150;BME280;3106;42.670;23.318;2023-07-30T00:45:45;94291.44;;;21.88;69.73
6150;BME280;3106;42.670;23.318;2023-07-30T00:48:13;94300.78;;;21.87;69.73
6150;BME280;3106;42.670;23.318;2023-07-30T00:50:40;94293.44;;;21.84;70.07
6150;BME280;3106;42.670;23.318;2023-07-30T00:53:09;94301.75;;;21.77;70.27
6150;BME280;3106;42.670;23.318;2023-07-30T00:55:36;94297.06;;;21.78;70.36
6150;BME280;3106;42.670;23.318;2023-07-30T00:58:03;94299.50;;;21.72;70.52
6150;BME280;3106;42.670;23.318;2023-07-30T01:00:31;94301.88;;;21.70;68.81
6150;BME280;3106;42.670;23.318;2023-07-30T01:02:59;94297.31;;;21.60;69.21
6150;BME280;3106;42.670;23.318;2023-07-30T01:05:26;94289.28;;;21.53;69.32
6150;BME280;3106;42.670;23.318;2023-07-30T01:07:52;94285.91;;;21.46;69.01
6150;BME280;3106;42.670;23.318;2023-07-30T01:10:19;94302.19;;;21.49;69.07
6150;BME280;3106;42.670;23.318;2023-07-30T01:12:49;94294.53;;;21.41;69.29
6150;BME280;3106;42.670;23.318;2023-07-30T01:15:17;94297.38;;;21.34;69.42
6150;BME280;3106;42.670;23.318;2023-07-30T01:17:46;94301.66;;;21.32;70.11
6150;BME280;3106;42.670;23.318;2023-07-30T01:20:12;94300.69;;;21.22;69.86
6150;BME280;3106;42.670;23.318;2023-07-30T01:22:41;94311.13;;;21.24;69.87
6150;BME280;3106;42.670;23.318;2023-07-30T01:25:08;94300.72;;;21.19;70.02
6150;BME280;3106;42.670;23.318;2023-07-30T01:27:39;94294.16;;;21.16;70.05
6150;BME280;3106;42.670;23.318;2023-07-30T01:30:09;94305.84;;;21.13;70.20
6150;BME280;3106;42.670;23.318;2023-07-30T01:32:37;94302.38;;;21.13;70.31
6150;BME280;3106;42.670;23.318;2023-07-30T01:35:06;94302.03;;;21.07;70.48
6150;BME280;3106;42.670;23.318;2023-07-30T01:37:34;94297.91;;;20.99;70.79
6150;BME280;3106;42.670;23.318;2023-07-30T01:40:05;94304.88;;;21.00;71.02
6150;BME280;3106;42.670;23.318;2023-07-30T01:42:32;94306.06;;;20.99;70.93
6150;BME280;3106;42.670;23.318;2023-07-30T01:44:59;94307.28;;;20.95;71.04
6150;BME280;3106;42.670;23.318;2023-07-30T01:47:26;94309.28;;;20.91;71.74
6150;BME280;3106;42.670;23.318;2023-07-30T01:49:53;94310.81;;;20.92;71.23
6150;BME280;3106;42.670;23.318;2023-07-30T01:52:19;94306.63;;;20.87;71.69
6150;BME280;3106;42.670;23.318;2023-07-30T01:54:46;94307.84;;;20.83;71.75
6150;BME280;3106;42.670;23.318;2023-07-30T01:57:14;94312.16;;;20.77;72.71
6150;BME280;3106;42.670;23.318;2023-07-30T01:59:41;94304.19;;;20.63;73.75
6150;BME280;3106;42.670;23.318;2023-07-30T02:02:08;94302.44;;;20.49;74.91
6150;BME280;3106;42.670;23.318;2023-07-30T02:04:35;94313.69;;;20.48;75.52
6150;BME280;3106;42.670;23.318;2023-07-30T02:07:02;94297.09;;;20.42;75.28
6150;BME280;3106;42.670;23.318;2023-07-30T02:09:29;94322.16;;;20.53;75.01
6150;BME280;3106;42.670;23.318;2023-07-30T02:11:55;94310.88;;;20.55;74.66
6150;BME280;3106;42.670;23.318;2023-07-30T02:14:24;94310.44;;;20.60;74.29
6150;BME280;3106;42.670;23.318;2023-07-30T02:16:50;94309.63;;;20.63;73.95
6150;BME280;3106;42.670;23.318;2023-07-30T02:19:17;94311.25;;;20.57;73.19
6150;BME280;3106;42.670;23.318;2023-07-30T02:21:44;94310.13;;;20.54;73.20
6150;BME280;3106;42.670;23.318;2023-07-30T02:24:11;94315.19;;;20.52;73.39
6150;BME280;3106;42.670;23.318;2023-07-30T02:26:38;94317.09;;;20.55;73.31
6150;BME280;3106;42.670;23.318;2023-07-30T02:29:05;94321.69;;;20.62;72.41
6150;BME280;3106;42.670;23.318;2023-07-30T02:31:34;94319.81;;;20.55;72.13
6150;BME280;3106;42.670;23.318;2023-07-30T02:34:01;94320.19;;;20.54;72.18
6150;BME280;3106;42.670;23.318;2023-07-30T02:36:27;94324.56;;;20.48;71.90
6150;BME280;3106;42.670;23.318;2023-07-30T02:38:54;94323.28;;;20.56;71.72
6150;BME280;3106;42.670;23.318;2023-07-30T02:41:21;94315.91;;;20.56;71.64
6150;BME280;3106;42.670;23.318;2023-07-30T02:43:48;94334.09;;;20.63;71.45
6150;BME280;3106;42.670;23.318;2023-07-30T02:46:15;94324.75;;;20.64;71.39
6150;BME280;3106;42.670;23.318;2023-07-30T02:48:43;94332.91;;;20.64;71.55
6150;BME280;3106;42.670;23.318;2023-07-30T02:51:10;94330.19;;;20.64;71.63
6150;BME280;3106;42.670;23.318;2023-07-30T02:53:37;94327.16;;;20.58;71.67
6150;BME280;3106;42.670;23.318;2023-07-30T02:56:03;94328.78;;;20.52;72.02
6150;BME280;3106;42.670;23.318;2023-07-30T02:58:30;94327.25;;;20.48;72.91
6150;BME280;3106;42.670;23.318;2023-07-30T03:01:05;94329.63;;;20.46;72.57
6150;BME280;3106;42.670;23.318;2023-07-30T03:03:31;94323.47;;;20.42;73.08
6150;BME280;3106;42.670;23.318;2023-07-30T03:06:00;94330.88;;;20.38;73.58
6150;BME280;3106;42.670;23.318;2023-07-30T03:08:26;94328.50;;;20.43;73.38
6150;BME280;3106;42.670;23.318;2023-07-30T03:10:53;94337.00;;;20.45;73.25
6150;BME280;3106;42.670;23.318;2023-07-30T03:13:20;94340.91;;;20.44;73.72
6150;BME280;3106;42.670;23.318;2023-07-30T03:15:47;94338.56;;;20.46;73.59
6150;BME280;3106;42.670;23.318;2023-07-30T03:18:14;94328.41;;;20.50;74.12
6150;BME280;3106;42.670;23.318;2023-07-30T03:20:41;94332.69;;;20.48;74.00
6150;BME280;3106;42.670;23.318;2023-07-30T03:23:09;94331.59;;;20.42;74.14
6150;BME280;3106;42.670;23.318;2023-07-30T03:25:36;94336.28;;;20.41;74.47
6150;BME280;3106;42.670;23.318;2023-07-30T03:28:03;94324.28;;;20.39;74.51
6150;BME280;3106;42.670;23.318;2023-07-30T03:30:30;94325.00;;;20.43;75.85
6150;BME280;3106;42.670;23.318;2023-07-30T03:32:57;94333.56;;;20.41;76.25
6150;BME280;3106;42.670;23.318;2023-07-30T03:35:24;94330.44;;;20.43;76.57
6150;BME280;3106;42.670;23.318;2023-07-30T03:37:51;94331.16;;;20.47;76.44
6150;BME280;3106;42.670;23.318;2023-07-30T03:40:19;94330.44;;;20.43;76.87
6150;BME280;3106;42.670;23.318;2023-07-30T03:42:46;94329.72;;;20.39;76.23
6150;BME280;3106;42.670;23.318;2023-07-30T03:45:15;94330.47;;;20.39;76.33
6150;BME280;3106;42.670;23.318;2023-07-30T03:47:41;94337.78;;;20.46;75.81
6150;BME280;3106;42.670;23.318;2023-07-30T03:50:09;94339.31;;;20.47;75.21
6150;BME280;3106;42.670;23.318;2023-07-30T03:52:36;94338.13;;;20.48;75.10
6150;BME280;3106;42.670;23.318;2023-07-30T03:55:03;94332.78;;;20.41;75.25
6150;BME280;3106;42.670;23.318;2023-07-30T03:57:31;94346.28;;;20.48;75.66
6150;BME280;3106;42.670;23.318;2023-07-30T03:59:58;94350.16;;;20.47;76.01
6150;BME280;3106;42.670;23.318;2023-07-30T04:02:25;94354.84;;;20.46;76.13
6150;BME280;3106;42.670;23.318;2023-07-30T04:04:52;94349.00;;;20.48;76.13
6150;BME280;3106;42.670;23.318;2023-07-30T04:07:18;94347.50;;;20.43;76.32
6150;BME280;3106;42.670;23.318;2023-07-30T04:09:45;94344.03;;;20.39;76.63
6150;BME280;3106;42.670;23.318;2023-07-30T04:12:12;94347.94;;;20.38;76.18
6150;BME280;3106;42.670;23.318;2023-07-30T04:14:40;94339.88;;;20.31;76.13
6150;BME280;3106;42.670;23.318;2023-07-30T04:17:07;94327.56;;;20.23;76.07
6150;BME280;3106;42.670;23.318;2023-07-30T04:19:34;94351.81;;;20.37;76.25
6150;BME280;3106;42.670;23.318;2023-07-30T04:22:01;94351.00;;;20.40;76.36
6150;BME280;3106;42.670;23.318;2023-07-30T04:24:27;94356.06;;;20.42;76.13
6150;BME280;3106;42.670;23.318;2023-07-30T04:26:54;94354.78;;;20.50;75.55
6150;BME280;3106;42.670;23.318;2023-07-30T04:29:21;94348.53;;;20.53;74.95
6150;BME280;3106;42.670;23.318;2023-07-30T04:31:50;94361.31;;;20.56;74.31
6150;BME280;3106;42.670;23.318;2023-07-30T04:34:16;94357.88;;;20.52;74.60
6150;BME280;3106;42.670;23.318;2023-07-30T04:36:43;94342.66;;;20.58;74.84
6150;BME280;3106;42.670;23.318;2023-07-30T04:39:10;94349.94;;;20.68;74.88
6150;BME280;3106;42.670;23.318;2023-07-30T04:41:37;94350.59;;;20.75;74.21
6150;BME280;3106;42.670;23.318;2023-07-30T04:44:04;94357.97;;;20.78;74.46
6150;BME280;3106;42.670;23.318;2023-07-30T04:46:31;94360.63;;;20.85;73.94
6150;BME280;3106;42.670;23.318;2023-07-30T04:49:02;94360.63;;;20.85;73.92
6150;BME280;3106;42.670;23.318;2023-07-30T04:51:29;94357.47;;;20.87;74.05
6150;BME280;3106;42.670;23.318;2023-07-30T04:53:56;94360.47;;;20.96;74.04
6150;BME280;3106;42.670;23.318;2023-07-30T04:56:23;94356.19;;;20.95;73.89
6150;BME280;3106;42.670;23.318;2023-07-30T04:58:51;94357.47;;;20.87;74.22
6150;BME280;3106;42.670;23.318;2023-07-30T05:01:18;94357.13;;;20.85;74.12
6150;BME280;3106;42.670;23.318;2023-07-30T05:03:45;94362.78;;;20.97;73.53
6150;BME280;3106;42.670;23.318;2023-07-30T05:06:13;94365.75;;;21.06;72.91
6150;BME280;3106;42.670;23.318;2023-07-30T05:08:40;94369.06;;;21.21;72.56
6150;BME280;3106;42.670;23.318;2023-07-30T05:11:07;94358.50;;;21.26;72.17
6150;BME280;3106;42.670;23.318;2023-07-30T05:13:34;94358.00;;;21.35;72.31
6150;BME280;3106;42.670;23.318;2023-07-30T05:16:01;94359.19;;;21.34;71.67
6150;BME280;3106;42.670;23.318;2023-07-30T05:18:28;94353.72;;;21.34;71.90
6150;BME280;3106;42.670;23.318;2023-07-30T05:20:55;94366.34;;;21.47;71.36
6150;BME280;3106;42.670;23.318;2023-07-30T05:23:23;94357.31;;;21.53;70.49
6150;BME280;3106;42.670;23.318;2023-07-30T05:25:50;94355.63;;;21.63;70.00
6150;BME280;3106;42.670;23.318;2023-07-30T05:28:17;94360.09;;;21.76;69.48
6150;BME280;3106;42.670;23.318;2023-07-30T05:30:43;94360.84;;;21.77;68.63
6150;BME280;3106;42.670;23.318;2023-07-30T05:33:10;94360.59;;;22.14;67.41
6150;BME280;3106;42.670;23.318;2023-07-30T05:35:37;94356.84;;;24.24;59.37
6150;BME280;3106;42.670;23.318;2023-07-30T05:38:04;94363.91;;;26.22;52.57
6150;BME280;3106;42.670;23.318;2023-07-30T05:40:32;94370.84;;;27.77;48.30
6150;BME280;3106;42.670;23.318;2023-07-30T05:42:59;94374.25;;;29.55;44.53
6150;BME280;3106;42.670;23.318;2023-07-30T05:45:26;94380.84;;;31.16;39.92
6150;BME280;3106;42.670;23.318;2023-07-30T05:47:53;94378.69;;;32.21;37.42
6150;BME280;3106;42.670;23.318;2023-07-30T05:50:20;94386.44;;;33.11;35.50
6150;BME280;3106;42.670;23.318;2023-07-30T05:52:47;94388.25;;;33.65;33.98
6150;BME280;3106;42.670;23.318;2023-07-30T05:55:14;94392.69;;;34.08;33.28
6150;BME280;3106;42.670;23.318;2023-07-30T05:57:42;94395.16;;;34.31;32.52
6150;BME280;3106;42.670;23.318;2023-07-30T06:00:09;94393.31;;;34.59;31.89
6150;BME280;3106;42.670;23.318;2023-07-30T06:02:36;94390.78;;;34.61;31.73
6150;BME280;3106;42.670;23.318;2023-07-30T06:05:04;94394.34;;;34.61;31.65
6150;BME280;3106;42.670;23.318;2023-07-30T06:07:31;94391.63;;;35.20;30.91
6150;BME280;3106;42.670;23.318;2023-07-30T06:09:58;94401.91;;;36.05;30.24
6150;BME280;3106;42.670;23.318;2023-07-30T06:12:24;94406.94;;;35.04;30.56
6150;BME280;3106;42.670;23.318;2023-07-30T06:14:53;94399.84;;;34.56;30.98
6150;BME280;3106;42.670;23.318;2023-07-30T06:17:19;94402.75;;;34.72;31.14
6150;BME280;3106;42.670;23.318;2023-07-30T06:19:46;94404.41;;;35.01;30.80
6150;BME280;3106;42.670;23.318;2023-07-30T06:22:13;94402.88;;;35.69;30.13
6150;BME280;3106;42.670;23.318;2023-07-30T06:24:40;94402.59;;;35.56;30.69
6150;BME280;3106;42.670;23.318;2023-07-30T06:27:07;94392.28;;;34.98;30.67
6150;BME280;3106;42.670;23.318;2023-07-30T06:29:35;94400.13;;;35.05;30.15
6150;BME280;3106;42.670;23.318;2023-07-30T06:32:03;94400.78;;;35.37;30.12
6150;BME280;3106;42.670;23.318;2023-07-30T06:34:30;94397.19;;;35.25;30.53
6150;BME280;3106;42.670;23.318;2023-07-30T06:36:57;94394.59;;;35.11;30.85
6150;BME280;3106;42.670;23.318;2023-07-30T06:39:24;94378.38;;;34.51;30.33
6150;BME280;3106;42.670;23.318;2023-07-30T06:41:51;94384.81;;;34.68;30.22
6150;BME280;3106;42.670;23.318;2023-07-30T06:44:18;94382.66;;;34.52;30.99
6150;BME280;3106;42.670;23.318;2023-07-30T06:46:45;94378.06;;;34.85;31.20
6150;BME280;3106;42.670;23.318;2023-07-30T06:49:13;94358.69;;;35.02;30.09
6150;BME280;3106;42.670;23.318;2023-07-30T06:51:40;94367.94;;;34.41;31.48
6150;BME280;3106;42.670;23.318;2023-07-30T06:54:06;94370.19;;;34.78;31.06
6150;BME280;3106;42.670;23.318;2023-07-30T06:56:33;94365.00;;;35.08;30.44
6150;BME280;3106;42.670;23.318;2023-07-30T06:59:02;94354.84;;;34.88;31.09
6150;BME280;3106;42.670;23.318;2023-07-30T07:01:29;94355.63;;;34.47;31.40
6150;BME280;3106;42.670;23.318;2023-07-30T07:03:56;94356.94;;;34.57;30.97
6150;BME280;3106;42.670;23.318;2023-07-30T07:06:24;94361.34;;;34.33;31.70
6150;BME280;3106;42.670;23.318;2023-07-30T07:08:51;94339.78;;;34.17;32.20
6150;BME280;3106;42.670;23.318;2023-07-30T07:11:18;94348.47;;;32.97;33.44
6150;BME280;3106;42.670;23.318;2023-07-30T07:13:45;94345.25;;;31.75;35.13
6150;BME280;3106;42.670;23.318;2023-07-30T07:16:14;94340.78;;;31.34;36.27
6150;BME280;3106;42.670;23.318;2023-07-30T07:18:41;94337.72;;;31.32;37.20
6150;BME280;3106;42.670;23.318;2023-07-30T07:21:07;94326.22;;;30.96;36.93
6150;BME280;3106;42.670;23.318;2023-07-30T07:23:36;94331.34;;;30.74;36.77
6150;BME280;3106;42.670;23.318;2023-07-30T07:26:03;94340.81;;;30.35;37.18
6150;BME280;3106;42.670;23.318;2023-07-30T07:28:29;94324.56;;;30.05;37.38
6150;BME280;3106;42.670;23.318;2023-07-30T07:30:56;94333.88;;;29.84;37.29
6150;BME280;3106;42.670;23.318;2023-07-30T07:33:23;94319.22;;;29.69;37.86
6150;BME280;3106;42.670;23.318;2023-07-30T07:35:50;94320.72;;;29.70;38.46
6150;BME280;3106;42.670;23.318;2023-07-30T07:38:17;94300.63;;;29.78;38.93
6150;BME280;3106;42.670;23.318;2023-07-30T07:40:45;94319.19;;;29.78;37.79
6150;BME280;3106;42.670;23.318;2023-07-30T07:43:12;94305.31;;;29.63;38.44
6150;BME280;3106;42.670;23.318;2023-07-30T07:45:39;94314.28;;;29.82;38.79
6150;BME280;3106;42.670;23.318;2023-07-30T07:48:06;94314.34;;;29.96;38.83
6150;BME280;3106;42.670;23.318;2023-07-30T07:50:33;94312.84;;;29.86;38.65
6150;BME280;3106;42.670;23.318;2023-07-30T07:52:59;94306.16;;;29.78;38.53
6150;BME280;3106;42.670;23.318;2023-07-30T07:55:26;94314.50;;;29.93;38.83
6150;BME280;3106;42.670;23.318;2023-07-30T07:57:54;94317.25;;;30.02;38.33
6150;BME280;3106;42.670;23.318;2023-07-30T08:00:21;94312.94;;;30.10;38.17
6150;BME280;3106;42.670;23.318;2023-07-30T08:02:48;94306.34;;;30.07;37.70
6150;BME280;3106;42.670;23.318;2023-07-30T08:05:15;94302.31;;;29.85;37.92
6150;BME280;3106;42.670;23.318;2023-07-30T08:07:44;94301.72;;;29.81;38.58
6150;BME280;3106;42.670;23.318;2023-07-30T08:10:11;94309.03;;;30.16;38.11
6150;BME280;3106;42.670;23.318;2023-07-30T08:12:38;94301.97;;;30.39;37.02
6150;BME280;3106;42.670;23.318;2023-07-30T08:15:07;94300.41;;;30.47;37.18
6150;BME280;3106;42.670;23.318;2023-07-30T08:17:34;94296.25;;;30.04;37.26
6150;BME280;3106;42.670;23.318;2023-07-30T08:20:01;94290.66;;;30.13;37.90
6150;BME280;3106;42.670;23.318;2023-07-30T08:22:28;94299.00;;;30.28;37.95
6150;BME280;3106;42.670;23.318;2023-07-30T08:24:54;94300.75;;;30.40;37.81
6150;BME280;3106;42.670;23.318;2023-07-30T08:27:21;94294.03;;;30.55;37.71
6150;BME280;3106;42.670;23.318;2023-07-30T08:29:48;94287.72;;;30.64;37.70
6150;BME280;3106;42.670;23.318;2023-07-30T08:32:16;94279.13;;;30.62;36.53
6150;BME280;3106;42.670;23.318;2023-07-30T08:34:43;94288.78;;;30.66;37.00
6150;BME280;3106;42.670;23.318;2023-07-30T08:37:10;94282.56;;;30.57;36.44
6150;BME280;3106;42.670;23.318;2023-07-30T08:39:37;94276.28;;;30.71;36.57
6150;BME280;3106;42.670;23.318;2023-07-30T08:42:04;94267.88;;;30.51;36.38
6150;BME280;3106;42.670;23.318;2023-07-30T08:44:31;94282.97;;;30.64;36.89
6150;BME280;3106;42.670;23.318;2023-07-30T08:46:58;94268.22;;;30.67;36.51
6150;BME280;3106;42.670;23.318;2023-07-30T08:49:27;94267.91;;;30.80;36.38
6150;BME280;3106;42.670;23.318;2023-07-30T08:51:58;94270.91;;;30.91;36.39
6150;BME280;3106;42.670;23.318;2023-07-30T08:54:27;94264.16;;;31.06;36.58
6150;BME280;3106;42.670;23.318;2023-07-30T08:56:56;94257.31;;;31.16;36.55
6150;BME280;3106;42.670;23.318;2023-07-30T08:59:24;94271.94;;;31.08;35.53
6150;BME280;3106;42.670;23.318;2023-07-30T09:01:51;94259.53;;;30.60;36.49
6150;BME280;3106;42.670;23.318;2023-07-30T09:04:18;94263.72;;;30.70;35.97
6150;BME280;3106;42.670;23.318;2023-07-30T09:06:49;94255.16;;;30.68;36.54
6150;BME280;3106;42.670;23.318;2023-07-30T09:09:16;94261.91;;;30.67;36.82
6150;BME280;3106;42.670;23.318;2023-07-30T09:11:43;94256.03;;;30.88;35.88
6150;BME280;3106;42.670;23.318;2023-07-30T09:14:09;94234.03;;;30.94;35.44
6150;BME280;3106;42.670;23.318;2023-07-30T09:16:36;94260.91;;;31.22;34.54
6150;BME280;3106;42.670;23.318;2023-07-30T09:19:05;94256.34;;;31.33;34.17
6150;BME280;3106;42.670;23.318;2023-07-30T09:21:33;94252.91;;;31.38;34.57
6150;BME280;3106;42.670;23.318;2023-07-30T09:24:03;94248.22;;;31.44;33.81
6150;BME280;3106;42.670;23.318;2023-07-30T09:26:40;94256.88;;;31.66;33.41
6150;BME280;3106;42.670;23.318;2023-07-30T09:29:08;94250.56;;;31.51;32.50
6150;BME280;3106;42.670;23.318;2023-07-30T09:31:49;94248.13;;;31.53;32.91
6150;BME280;3106;42.670;23.318;2023-07-30T09:34:20;94246.38;;;31.56;31.45
6150;BME280;3106;42.670;23.318;2023-07-30T09:36:49;94247.50;;;31.78;31.61
6150;BME280;3106;42.670;23.318;2023-07-30T09:39:20;94221.38;;;31.79;32.02
6150;BME280;3106;42.670;23.318;2023-07-30T09:41:48;94221.69;;;31.67;31.71
6150;BME280;3106;42.670;23.318;2023-07-30T09:44:16;94232.59;;;31.90;32.07
6150;BME280;3106;42.670;23.318;2023-07-30T09:46:44;94228.00;;;31.53;32.26
6150;BME280;3106;42.670;23.318;2023-07-30T09:49:11;94232.72;;;31.32;32.00
6150;BME280;3106;42.670;23.318;2023-07-30T09:51:39;94220.06;;;31.60;31.62
6150;BME280;3106;42.670;23.318;2023-07-30T09:54:06;94225.66;;;31.31;32.47
6150;BME280;3106;42.670;23.318;2023-07-30T09:56:35;94221.22;;;31.20;32.58
6150;BME280;3106;42.670;23.318;2023-07-30T09:59:04;94216.41;;;31.34;32.04
6150;BME280;3106;42.670;23.318;2023-07-30T10:01:31;94221.25;;;31.39;31.46
6150;BME280;3106;42.670;23.318;2023-07-30T10:04:07;94215.50;;;31.57;30.82
6150;BME280;3106;42.670;23.318;2023-07-30T10:06:36;94220.25;;;31.71;30.58
6150;BME280;3106;42.670;23.318;2023-07-30T10:09:05;94223.56;;;31.75;31.54
6150;BME280;3106;42.670;23.318;2023-07-30T10:11:36;94212.53;;;31.95;30.49
6150;BME280;3106;42.670;23.318;2023-07-30T10:14:04;94217.44;;;32.06;31.36
6150;BME280;3106;42.670;23.318;2023-07-30T10:16:31;94192.56;;;32.26;30.73
6150;BME280;3106;42.670;23.318;2023-07-30T10:18:58;94196.16;;;32.57;30.17
6150;BME280;3106;42.670;23.318;2023-07-30T10:21:27;94199.56;;;32.67;30.63
6150;BME280;3106;42.670;23.318;2023-07-30T10:24:01;94197.06;;;32.94;30.44
6150;BME280;3106;42.670;23.318;2023-07-30T10:26:29;94192.69;;;33.13;29.76
6150;BME280;3106;42.670;23.318;2023-07-30T10:29:17;94192.00;;;33.18;29.80
6150;BME280;3106;42.670;23.318;2023-07-30T10:31:50;94195.75;;;33.15;30.02
6150;BME280;3106;42.670;23.318;2023-07-30T10:34:18;94170.22;;;32.55;29.78
6150;BME280;3106;42.670;23.318;2023-07-30T10:36:46;94181.84;;;32.33;30.24
6150;BME280;3106;42.670;23.318;2023-07-30T10:39:16;94182.28;;;32.52;30.29
6150;BME280;3106;42.670;23.318;2023-07-30T10:41:44;94167.22;;;32.58;30.60
6150;BME280;3106;42.670;23.318;2023-07-30T10:44:22;94170.66;;;32.98;29.67
6150;BME280;3106;42.670;23.318;2023-07-30T10:46:49;94173.25;;;33.07;29.42
6150;BME280;3106;42.670;23.318;2023-07-30T10:49:16;94161.16;;;33.05;29.55
6150;BME280;3106;42.670;23.318;2023-07-30T10:51:43;94156.63;;;33.07;29.71
6150;BME280;3106;42.670;23.318;2023-07-30T10:54:09;94155.06;;;33.32;29.42
6150;BME280;3106;42.670;23.318;2023-07-30T10:56:37;94150.97;;;33.22;28.92
6150;BME280;3106;42.670;23.318;2023-07-30T10:59:04;94148.31;;;33.38;29.14
6150;BME280;3106;42.670;23.318;2023-07-30T11:01:36;94123.50;;;32.93;29.12
6150;BME280;3106;42.670;23.318;2023-07-30T11:04:06;94137.06;;;32.86;29.30
6150;BME280;3106;42.670;23.318;2023-07-30T11:06:33;94147.09;;;32.32;29.99
6150;BME280;3106;42.670;23.318;2023-07-30T11:09:00;94126.31;;;32.42;30.18
6150;BME280;3106;42.670;23.318;2023-07-30T11:11:27;94127.13;;;32.48;29.58
6150;BME280;3106;42.670;23.318;2023-07-30T11:13:54;94128.63;;;32.49;29.86
6150;BME280;3106;42.670;23.318;2023-07-30T11:16:21;94124.69;;;32.81;29.23
6150;BME280;3106;42.670;23.318;2023-07-30T11:18:49;94129.81;;;32.93;28.82
6150;BME280;3106;42.670;23.318;2023-07-30T11:21:17;94109.19;;;32.94;29.12
6150;BME280;3106;42.670;23.318;2023-07-30T11:23:45;94114.53;;;33.03;28.72
6150;BME280;3106;42.670;23.318;2023-07-30T11:26:17;94121.25;;;33.22;28.99
6150;BME280;3106;42.670;23.318;2023-07-30T11:28:45;94117.97;;;32.93;28.68
6150;BME280;3106;42.670;23.318;2023-07-30T11:31:13;94117.19;;;33.18;28.68
6150;BME280;3106;42.670;23.318;2023-07-30T11:33:41;94104.97;;;33.41;28.73
6150;BME280;3106;42.670;23.318;2023-07-30T11:36:10;94107.50;;;33.39;28.24
6150;BME280;3106;42.670;23.318;2023-07-30T11:38:38;94110.16;;;33.64;28.20
6150;BME280;3106;42.670;23.318;2023-07-30T11:41:06;94101.59;;;33.68;28.27
6150;BME280;3106;42.670;23.318;2023-07-30T11:43:37;94088.50;;;33.26;28.50
6150;BME280;3106;42.670;23.318;2023-07-30T11:46:10;94090.25;;;32.93;28.85
6150;BME280;3106;42.670;23.318;2023-07-30T11:48:37;94087.88;;;32.75;29.28
6150;BME280;3106;42.670;23.318;2023-07-30T11:51:04;94082.06;;;33.09;29.16
6150;BME280;3106;42.670;23.318;2023-07-30T11:53:46;94083.22;;;33.28;28.79
6150;BME280;3106;42.670;23.318;2023-07-30T11:56:19;94075.41;;;33.27;28.26
6150;BME280;3106;42.670;23.318;2023-07-30T11:58:47;94079.69;;;32.91;28.61
6150;BME280;3106;42.670;23.318;2023-07-30T12:01:14;94061.03;;;33.23;28.57
6150;BME280;3106;42.670;23.318;2023-07-30T12:03:41;94038.19;;;33.02;28.79
6150;BME280;3106;42.670;23.318;2023-07-30T12:06:09;94059.31;;;33.36;28.46
6150;BME280;3106;42.670;23.318;2023-07-30T12:08:37;94063.56;;;33.26;27.97
6150;BME280;3106;42.670;23.318;2023-07-30T12:11:06;94060.41;;;33.13;28.08
6150;BME280;3106;42.670;23.318;2023-07-30T12:13:34;94052.19;;;33.19;28.14
6150;BME280;3106;42.670;23.318;2023-07-30T12:16:01;94047.75;;;33.38;27.86
6150;BME280;3106;42.670;23.318;2023-07-30T12:18:28;94046.59;;;33.61;28.05
6150;BME280;3106;42.670;23.318;2023-07-30T12:20:55;94041.69;;;33.92;27.68
6150;BME280;3106;42.670;23.318;2023-07-30T12:23:23;94031.59;;;34.06;27.08
6150;BME280;3106;42.670;23.318;2023-07-30T12:25:50;94021.06;;;34.21;27.53
6150;BME280;3106;42.670;23.318;2023-07-30T12:28:19;94011.75;;;34.40;26.75
6150;BME280;3106;42.670;23.318;2023-07-30T12:30:46;94014.00;;;34.42;26.89
6150;BME280;3106;42.670;23.318;2023-07-30T12:33:13;94013.00;;;34.39;27.01
6150;BME280;3106;42.670;23.318;2023-07-30T12:35:40;94023.34;;;34.17;26.98
6150;BME280;3106;42.670;23.318;2023-07-30T12:38:07;94019.22;;;33.85;27.44
6150;BME280;3106;42.670;23.318;2023-07-30T12:40:34;94016.22;;;33.35;27.74
6150;BME280;3106;42.670;23.318;2023-07-30T12:43:01;94007.78;;;33.13;28.04
6150;BME280;3106;42.670;23.318;2023-07-30T12:45:30;94013.19;;;33.33;28.42
6150;BME280;3106;42.670;23.318;2023-07-30T12:47:57;94000.22;;;33.61;27.89
6150;BME280;3106;42.670;23.318;2023-07-30T12:50:24;93995.50;;;33.84;28.03
6150;BME280;3106;42.670;23.318;2023-07-30T12:52:51;93993.31;;;34.32;27.39
6150;BME280;3106;42.670;23.318;2023-07-30T12:55:18;93994.59;;;34.53;26.85
6150;BME280;3106;42.670;23.318;2023-07-30T12:57:45;93988.78;;;34.72;26.54
6150;BME280;3106;42.670;23.318;2023-07-30T13:00:12;93993.28;;;35.14;26.28
6150;BME280;3106;42.670;23.318;2023-07-30T13:02:40;93977.09;;;34.96;26.14
6150;BME280;3106;42.670;23.318;2023-07-30T13:05:08;93984.47;;;34.88;26.61
6150;BME280;3106;42.670;23.318;2023-07-30T13:07:35;93984.72;;;34.73;27.40
6150;BME280;3106;42.670;23.318;2023-07-30T13:10:03;93981.22;;;34.73;26.83
6150;BME280;3106;42.670;23.318;2023-07-30T13:12:30;93986.72;;;34.95;26.75